Share

Laredo International, TX

Del Mar C (KTXLARED6) Elev 492 ft | 27.56 °N, 99.48 °W | Change Station

Current weather conditions updated 10 seconds ago

Overcast
Overcast
78.3 °F
Feels Like 80 °F
N
6.5
Wind Variable Wind from SSE
Gusts 7.4 mph
Sunrise 7:11 AM
Sunset 8:03 PM
Moon Waning Gibbous

Tomorrow is forecast to be Warmer than today.

Pressure 29.95 in
Visibility 10.0 miles
Clouds Overcast 3700 ft
Heat Index 80 °F
Dew Point 59 °F
Humidity 52%
Rainfall 0.00 in
Snow Depth Not available.
UV 2 out of 16
Pollen 9.90 out of 12
Ozone Good
PM2.5 Good
Flu Activity Local Activity
METAR KAPY 172115Z AUTO 09005KT 10SM OVC037 24/15 A2995 RMK AO2 T02460148

More Conditions Fewer Conditions

Pressure 29.95 in
Visibility 10.0 miles
Clouds Overcast 3700 ft
Heat Index 80 °F
Dew Point 59 °F
Humidity 52%
Rainfall 0.00 in
Snow Depth Not available.
UV 2 out of 16
Pollen 9.90 out of 12
Ozone Good
PM2.5 Good
Flu Activity Local Activity
METAR KAPY 172115Z AUTO 09005KT 10SM OVC037 24/15 A2995 RMK AO2 T02460148

More Conditions Fewer Conditions

10-Day Forecast

Almanac

Astronomy

Apr. 17, 2014 Rise Set
Actual Time 7:11 AM CDT 8:03 PM CDT
Civil Twilight 6:47 AM CDT 8:27 PM CDT
Nautical Twilight 6:19 AM CDT 8:56 PM CDT
Astronomical Twilight 5:50 AM CDT 9:25 PM CDT
Moon 10:40 PM CDT 8:53 AM CDT
Length of Visible Light 13h 40m
Length of Day
12h 52m
Tomorrow will be 1m 31s longer.
Waning Gibbous, 92% of the Moon is Illuminated
Today
Waning Gibbous
Apr 22
Last Quarter
Apr 29
New
May 6
First Quarter
May 14
Full

Today's Extremes

State Highs State Lows

Community

  • Morning Light
    Morning Light
  • New Day
    New Day
  • Lake Michigan Sunrise
    Lake Michigan Sunrise
  • sunset from izmir, narlıdere
    sunset from izmir, narlıdere
  • oregon cherry
    oregon cherry

WunderPhotos

Upload Photos

1,702,140 photos uploaded!

Nearby

Air Quality

  Air Quality AQ Index Pollutant
Yesterday Good
OZONE
Current Good
PM2.5
Current Good
OZONE
Thursday Good
PM10
Thursday Good
OZONE
Friday Good
PM10
Friday Good
OZONE
Saturday Good
PM10
Saturday Good
OZONE
Sunday Good
PM10
Sunday Good
OZONE

Snow Depth

Station Depth Elevation
No new snow has been reported.

Coastal Water Temperatures

Place Temperature
No Stations Reporting

Earthquake Activity

City Distance Mag. Time & Date
No recent earthquake activity has been reported nearby.
Minimum magnitude displayed is 2.5.

Nearby Weather Stations

Station Location Temp. Heat Index Dew Point Humidity Wind Precip. Elev Updated Type
Del Mar C, Laredo, TX 78.3 °F 80 °F 59 °F 52% SSE  at  6.5 mph 0.00 in / hr 492 ft 4:36 PM CDT Rapid Fire
Werner Ent. Laredo, Laredo, TX 76.8 °F 79 °F 59 °F 54% NE  at  4.0 mph 0.00 in / hr 686 ft 4:28 PM CDT Normal

Show More Stations Show Fewer Stations

What do you think?

We're not finished. Please let us know what you like, what you don't like, and what you are still missing.